Airport View

Enter AWOS ICAO identifier for current METAR.

ex. KFNL

25 Jun 2018 03:53

Frequency: 135.325

Phone: 731-885-9161

Other Area AWOS: KPHT - KM25 - KDYR - KHZD

TAF KPAH 242330Z 2500/2524 VRB05KT P6SM VCSH BKN100 TEMPO 2500/2504 4SM TSRA OVC025CB FM250500 VRB03KT P6SM VCSH SCT025 BKN040 FM251000 VRB03KT 5SM BR VCSH BKN020 FM251400 VRB05KT P6SM SCT025 BKN050